Time;durP1;ratioP1;P1;durP2;ratioP2;P2;SDS_P1;SDS_P2;PMS_P1;PMS_P2;Temp;Humidity;BMP_temperature;BMP_pressure;BME280_temperature;BME280_humidity;BME280_pressure;Samples;Min_cycle;Max_cycle;Signal;HPM_P1;HPM_P2
2021/08/14 00:00:37;;;;;;;8.45;7.05;;;16.40;99.90;;;;;;21070352;28;20040;-51
2021/08/14 00:10:39;;;;;;;10.45;7.30;;;16.50;99.90;;;;;;21113469;28;20028;-51
2021/08/14 00:20:41;;;;;;;13.15;7.60;;;16.50;99.90;;;;;;21119728;28;20032;-53
2021/08/14 00:30:42;;;;;;;12.55;9.55;;;16.30;99.90;;;;;;21101764;28;20044;-52
2021/08/14 00:40:44;;;;;;;11.07;8.15;;;16.20;99.90;;;;;;21157244;28;20481;-54
2021/08/14 00:50:47;;;;;;;13.57;8.95;;;16.20;99.90;;;;;;21139511;28;20061;-50
2021/08/14 01:00:48;;;;;;;47.90;28.98;;;16.40;99.90;;;;;;21154712;28;20433;-55
2021/08/14 01:10:50;;;;;;;15.05;10.90;;;16.40;99.90;;;;;;21167532;28;20442;-55
2021/08/14 01:20:52;;;;;;;14.05;8.50;;;16.70;99.90;;;;;;21178531;28;20028;-55
2021/08/14 01:30:54;;;;;;;13.27;9.18;;;16.80;99.90;;;;;;21156795;28;20393;-55
2021/08/14 01:40:56;;;;;;;13.48;9.48;;;17.10;99.90;;;;;;21140242;28;20035;-52
2021/08/14 01:50:57;;;;;;;12.40;8.95;;;16.90;99.90;;;;;;21116727;28;20035;-51
2021/08/14 02:00:59;;;;;;;11.43;8.95;;;16.80;99.90;;;;;;21124437;28;20089;-52
2021/08/14 02:11:03;;;;;;;13.07;10.77;;;16.70;99.90;;;;;;21135829;28;20421;-49
2021/08/14 02:21:06;;;;;;;12.40;9.40;;;16.70;99.90;;;;;;21134302;28;20040;-54
2021/08/14 02:31:08;;;;;;;12.48;10.27;;;16.90;99.90;;;;;;21131684;28;20090;-52
2021/08/14 02:41:09;;;;;;;13.95;9.50;;;16.50;99.90;;;;;;21123799;28;20043;-54
2021/08/14 02:51:11;;;;;;;13.50;10.32;;;16.20;99.90;;;;;;21133316;28;20279;-55
2021/08/14 03:01:13;;;;;;;14.35;11.00;;;16.10;99.90;;;;;;21142332;28;20085;-52
2021/08/14 03:11:14;;;;;;;14.50;10.73;;;16.20;99.90;;;;;;21130408;28;20032;-54
2021/08/14 03:21:16;;;;;;;16.00;11.90;;;16.30;99.90;;;;;;21138624;28;20043;-54
2021/08/14 03:31:20;;;;;;;16.95;10.77;;;16.20;99.90;;;;;;21114518;28;20378;-54
2021/08/14 03:41:22;;;;;;;16.63;10.18;;;16.20;99.90;;;;;;21115556;28;20494;-50
2021/08/14 03:51:24;;;;;;;16.15;11.48;;;16.40;99.90;;;;;;21113732;28;20044;-54
2021/08/14 04:01:26;;;;;;;14.23;9.57;;;16.50;99.90;;;;;;21127598;28;20077;-53
2021/08/14 04:11:28;;;;;;;9.25;7.65;;;16.60;99.90;;;;;;21106141;28;20047;-53
2021/08/14 04:21:30;;;;;;;11.00;7.40;;;16.80;99.90;;;;;;21123437;28;20035;-51
2021/08/14 04:31:31;;;;;;;11.27;7.80;;;16.40;99.90;;;;;;21121448;28;20474;-52
2021/08/14 04:41:33;;;;;;;11.02;7.13;;;16.50;99.90;;;;;;21111694;28;20031;-51
2021/08/14 04:51:35;;;;;;;12.10;9.05;;;16.40;99.90;;;;;;21109883;28;20110;-55
2021/08/14 05:01:36;;;;;;;9.98;7.47;;;16.40;99.90;;;;;;21123264;28;20428;-49
2021/08/14 05:11:38;;;;;;;11.75;8.05;;;17.00;99.90;;;;;;21131336;28;20040;-53
2021/08/14 05:21:40;;;;;;;10.52;8.00;;;17.20;99.90;;;;;;21113639;28;20102;-49
2021/08/14 05:31:41;;;;;;;11.07;7.93;;;17.40;99.90;;;;;;21130128;28;20816;-55
2021/08/14 05:41:47;;;;;;;11.07;8.05;;;17.40;99.90;;;;;;21119426;28;20048;-54
2021/08/14 05:51:48;;;;;;;11.65;7.10;;;17.50;99.90;;;;;;21129083;28;20406;-51
2021/08/14 06:01:50;;;;;;;10.07;7.60;;;17.70;99.90;;;;;;21126458;28;20062;-51
2021/08/14 06:11:53;;;;;;;10.48;7.72;;;17.80;99.90;;;;;;21143669;28;20408;-54
2021/08/14 06:21:55;;;;;;;10.07;7.70;;;18.00;99.90;;;;;;21116724;28;20036;-50
2021/08/14 06:31:56;;;;;;;8.50;7.03;;;18.50;99.90;;;;;;21130382;28;20575;-56
2021/08/14 06:41:58;;;;;;;9.07;6.95;;;19.10;99.90;;;;;;21123769;28;20035;-52
2021/08/14 06:52:00;;;;;;;10.30;7.32;;;22.20;99.90;;;;;;21128952;28;20325;-56
2021/08/14 07:02:02;;;;;;;13.55;7.20;;;24.30;99.90;;;;;;21139150;28;20032;-55
2021/08/14 07:12:05;;;;;;;8.93;7.40;;;25.40;99.90;;;;;;21112040;28;20115;-56
2021/08/14 07:22:06;;;;;;;8.23;6.97;;;26.00;99.90;;;;;;21120804;28;20483;-55
2021/08/14 07:32:11;;;;;;;13.75;7.05;;;;;;;;;;21145151;28;20043;-56
2021/08/14 07:42:13;;;;;;;12.57;9.05;;;27.70;99.90;;;;;;21126546;28;20024;-52
2021/08/14 07:52:15;;;;;;;8.77;7.68;;;28.50;97.80;;;;;;21115217;28;20035;-57
2021/08/14 08:02:16;;;;;;;12.70;8.63;;;28.80;98.30;;;;;;21111721;28;20420;-55
2021/08/14 08:12:18;;;;;;;9.40;8.50;;;29.50;96.60;;;;;;21116860;28;20036;-54
2021/08/14 08:22:21;;;;;;;9.55;8.20;;;29.80;95.70;;;;;;21122885;28;20028;-56
2021/08/14 08:32:23;;;;;;;10.75;8.32;;;29.80;94.40;;;;;;21099165;28;20197;-56
2021/08/14 08:42:25;;;;;;;13.98;9.75;;;29.70;94.10;;;;;;21113821;28;20028;-56
2021/08/14 08:52:27;;;;;;;10.77;7.82;;;30.00;92.80;;;;;;21123237;28;20032;-57
2021/08/14 09:02:33;;;;;;;10.82;8.60;;;29.90;94.40;;;;;;21128865;28;20031;-54
2021/08/14 09:12:43;;;;;;;9.02;8.13;;;30.00;93.30;;;;;;21095572;28;20027;-54
2021/08/14 09:23:10;;;;;;;11.30;9.15;;;30.00;93.70;;;;;;21096502;28;20032;-56
2021/08/14 09:33:14;;;;;;;9.75;8.38;;;30.00;93.50;;;;;;21116563;28;20186;-54
2021/08/14 09:43:34;;;;;;;11.73;9.47;;;30.00;94.70;;;;;;21126901;28;20043;-57
2021/08/14 09:53:36;;;;;;;11.40;10.20;;;29.80;95.50;;;;;;21125951;28;20450;-56
2021/08/14 10:03:39;;;;;;;12.10;9.18;;;29.90;92.40;;;;;;21132465;28;20028;-54
2021/08/14 10:13:42;;;;;;;9.60;8.55;;;30.00;94.00;;;;;;21124366;28;20040;-56
2021/08/14 10:23:45;;;;;;;12.38;9.90;;;30.00;94.30;;;;;;21117839;28;20529;-55
2021/08/14 10:33:47;;;;;;;12.13;9.05;;;30.10;94.00;;;;;;21123160;28;20443;-55
2021/08/14 10:43:52;;;;;;;11.98;9.38;;;29.90;93.80;;;;;;21121654;28;20043;-56
2021/08/14 10:53:54;;;;;;;11.73;9.90;;;29.90;94.50;;;;;;21107324;28;20040;-56
2021/08/14 11:03:55;;;;;;;11.00;8.65;;;30.30;94.00;;;;;;21112170;28;20035;-55
2021/08/14 11:14:16;;;;;;;10.57;9.13;;;30.30;93.50;;;;;;21119150;28;20035;-55
2021/08/14 11:24:39;;;;;;;8.88;7.97;;;30.10;93.70;;;;;;21125285;28;20542;-57
2021/08/14 11:34:44;;;;;;;9.77;8.25;;;30.20;94.20;;;;;;21110489;28;20077;-55
2021/08/14 11:44:54;;;;;;;9.57;8.20;;;30.30;93.50;;;;;;21110607;28;20389;-53
2021/08/14 11:55:04;;;;;;;11.00;7.88;;;30.40;92.60;;;;;;21115714;28;20039;-56
2021/08/14 12:05:06;;;;;;;8.45;7.55;;;30.60;92.00;;;;;;21117542;28;20089;-56
2021/08/14 12:15:14;;;;;;;12.07;8.65;;;30.50;94.10;;;;;;21114898;28;20043;-54
2021/08/14 12:25:26;;;;;;;11.15;8.65;;;30.90;92.20;;;;;;21111801;28;20035;-55
2021/08/14 12:35:28;;;;;;;12.63;8.80;;;30.80;90.80;;;;;;21114188;28;20509;-57
2021/08/14 12:45:30;;;;;;;8.77;7.88;;;31.10;92.80;;;;;;21113155;28;20040;-54
2021/08/14 12:55:44;;;;;;;9.80;7.93;;;31.00;91.90;;;;;;21121208;28;20076;-54
2021/08/14 13:05:46;;;;;;;10.43;7.43;;;31.30;92.00;;;;;;21106013;28;20085;-57
2021/08/14 13:15:48;;;;;;;8.38;7.45;;;31.20;91.90;;;;;;21128973;28;20032;-55
2021/08/14 13:25:51;;;;;;;11.65;7.60;;;31.20;91.50;;;;;;21122144;28;20558;-56
2021/08/14 13:35:53;;;;;;;9.15;7.22;;;31.30;90.80;;;;;;21124395;28;20059;-54
2021/08/14 13:45:54;;;;;;;12.25;6.78;;;31.10;90.10;;;;;;21127647;28;20032;-55
2021/08/14 13:55:56;;;;;;;11.02;6.30;;;31.10;90.10;;;;;;21108157;28;20028;-55
2021/08/14 14:05:58;;;;;;;10.77;7.45;;;31.00;90.50;;;;;;21130368;28;20028;-56
2021/08/14 14:15:59;;;;;;;8.45;6.72;;;30.90;88.60;;;;;;21123312;28;20330;-57
2021/08/14 14:26:02;;;;;;;10.32;7.78;;;30.80;90.40;;;;;;21127681;28;20028;-53
2021/08/14 14:36:04;;;;;;;13.68;8.57;;;30.80;89.90;;;;;;21116814;28;20074;-56
2021/08/14 14:46:08;;;;;;;15.95;9.55;;;30.80;89.30;;;;;;21122303;28;20039;-58
2021/08/14 14:56:10;;;;;;;11.63;10.23;;;30.70;89.70;;;;;;21118230;28;20035;-57
2021/08/14 15:06:12;;;;;;;10.30;9.27;;;30.60;90.30;;;;;;21089244;28;20032;-57
2021/08/14 15:16:13;;;;;;;12.25;10.13;;;30.20;90.40;;;;;;21125362;28;20039;-58
2021/08/14 15:26:17;;;;;;;14.05;11.63;;;30.20;90.90;;;;;;21121901;28;20392;-58
2021/08/14 15:36:20;;;;;;;13.95;11.18;;;29.90;90.40;;;;;;21121170;28;20035;-55
2021/08/14 15:46:21;;;;;;;12.70;11.38;;;30.30;90.90;;;;;;21121559;28;20474;-57
2021/08/14 15:56:23;;;;;;;13.65;10.85;;;31.20;87.80;;;;;;21117968;28;20023;-58
2021/08/14 16:06:25;;;;;;;13.10;11.50;;;31.50;86.90;;;;;;21124874;28;20039;-58
2021/08/14 16:16:29;;;;;;;13.48;11.45;;;31.40;84.80;;;;;;21115192;28;20027;-56
2021/08/14 16:26:31;;;;;;;15.23;10.65;;;31.00;85.90;;;;;;21124430;28;20039;-54
2021/08/14 16:36:33;;;;;;;14.27;7.93;;;29.70;86.10;;;;;;21125921;28;20043;-55
2021/08/14 16:46:36;;;;;;;12.38;7.38;;;26.00;92.60;;;;;;21142985;28;20032;-53
2021/08/14 16:56:38;;;;;;;12.60;7.80;;;23.90;94.40;;;;;;21099777;28;20481;-56
2021/08/14 17:06:40;;;;;;;15.07;6.60;;;22.60;97.30;;;;;;21118000;28;20031;-54
2021/08/14 17:16:42;;;;;;;11.93;7.90;;;21.70;98.80;;;;;;21115360;28;20036;-53
2021/08/14 17:26:44;;;;;;;13.68;9.75;;;21.20;99.90;;;;;;21114499;28;20493;-55
2021/08/14 17:36:46;;;;;;;22.15;7.45;;;20.80;99.90;;;;;;21134575;28;20117;-52
2021/08/14 17:46:48;;;;;;;12.07;8.77;;;20.40;99.90;;;;;;21099308;28;20043;-53
2021/08/14 17:56:50;;;;;;;21.13;8.88;;;20.10;99.90;;;;;;21130202;28;20028;-51
2021/08/14 18:06:53;;;;;;;21.88;9.32;;;19.80;99.90;;;;;;21132480;28;20431;-54
2021/08/14 18:16:54;;;;;;;21.98;11.60;;;19.60;99.90;;;;;;21136932;28;20027;-53
2021/08/14 18:26:57;;;;;;;14.95;9.60;;;19.40;99.90;;;;;;21148055;28;20431;-55
2021/08/14 18:37:00;;;;;;;22.02;10.63;;;19.10;99.90;;;;;;21130938;28;20497;-53
2021/08/14 18:47:01;;;;;;;12.77;8.73;;;18.90;99.90;;;;;;21126445;28;20035;-52
2021/08/14 18:57:03;;;;;;;19.00;9.32;;;18.60;99.90;;;;;;21135883;28;20040;-51
2021/08/14 19:07:05;;;;;;;13.88;8.32;;;18.50;99.90;;;;;;21130717;28;20032;-53
2021/08/14 19:17:15;;;;;;;15.98;7.88;;;18.50;99.90;;;;;;21132923;28;20043;-52
2021/08/14 19:27:17;;;;;;;22.00;7.85;;;18.40;99.90;;;;;;21130760;28;20042;-54
2021/08/14 19:37:18;;;;;;;9.15;6.57;;;18.40;99.90;;;;;;21126453;28;20094;-53
2021/08/14 19:47:23;;;;;;;10.25;6.10;;;18.40;99.90;;;;;;21117778;28;20036;-54
2021/08/14 19:57:25;;;;;;;11.30;6.88;;;18.30;99.90;;;;;;21127201;28;20054;-52
2021/08/14 20:07:27;;;;;;;11.13;6.78;;;18.30;99.90;;;;;;21124604;28;20032;-54
2021/08/14 20:17:29;;;;;;;10.90;6.95;;;18.30;99.90;;;;;;21122563;28;20369;-54
2021/08/14 20:27:31;;;;;;;17.38;8.05;;;18.20;99.90;;;;;;21119704;28;20028;-53
2021/08/14 20:37:34;;;;;;;10.75;6.63;;;18.40;99.90;;;;;;21116817;28;20052;-55
2021/08/14 20:47:37;;;;;;;12.45;7.07;;;18.50;99.90;;;;;;21117421;28;20054;-54
2021/08/14 20:57:39;;;;;;;11.50;7.60;;;18.20;99.90;;;;;;21119242;28;20358;-53
2021/08/14 21:07:41;;;;;;;14.77;8.25;;;18.10;99.90;;;;;;21117195;28;20180;-55
2021/08/14 21:17:43;;;;;;;10.48;6.75;;;18.10;99.90;;;;;;21122687;28;20047;-50
2021/08/14 21:27:45;;;;;;;9.43;5.82;;;18.00;99.90;;;;;;21089722;28;20111;-55
2021/08/14 21:37:49;;;;;;;9.63;5.68;;;18.40;99.90;;;;;;21128125;28;20055;-56
2021/08/14 21:47:51;;;;;;;8.93;6.20;;;18.80;99.90;;;;;;21124188;28;20032;-52
2021/08/14 21:57:52;;;;;;;16.05;6.47;;;18.80;99.90;;;;;;21134825;28;20036;-56
2021/08/14 22:07:54;;;;;;;10.70;6.82;;;19.00;99.90;;;;;;21124796;28;20028;-55
2021/08/14 22:17:56;;;;;;;10.98;6.90;;;19.10;99.90;;;;;;21123094;28;20043;-55
2021/08/14 22:27:58;;;;;;;10.93;8.00;;;18.90;99.90;;;;;;21125507;28;20032;-54
2021/08/14 22:38:06;;;;;;;13.18;8.20;;;18.60;99.90;;;;;;21121547;28;20125;-54
2021/08/14 22:48:08;;;;;;;16.17;8.55;;;18.20;99.90;;;;;;21090207;28;20036;-55
2021/08/14 22:58:11;;;;;;;11.40;6.93;;;17.90;99.90;;;;;;21121356;28;20166;-52
2021/08/14 23:08:13;;;;;;;10.10;6.75;;;18.20;99.90;;;;;;21117229;28;20028;-52
2021/08/14 23:18:14;;;;;;;14.52;8.02;;;18.30;99.90;;;;;;21104818;28;20032;-55
2021/08/14 23:28:16;;;;;;;13.52;8.82;;;18.70;99.90;;;;;;21107805;28;20085;-56
2021/08/14 23:38:18;;;;;;;16.92;10.63;;;19.60;99.90;;;;;;21118559;28;20095;-55
2021/08/14 23:48:19;;;;;;;15.13;9.32;;;19.50;99.90;;;;;;21117813;28;20053;-55
2021/08/14 23:58:21;;;;;;;12.57;8.48;;;19.40;99.90;;;;;;21111014;28;20031;-53
